sensor_id;sensor_type;location;lat;lon;timestamp;temperature;humidity
9885;DHT22;4981;50.966;4.842;2022-11-24T00:01:09;8.60;1.00
9885;DHT22;4981;50.966;4.842;2022-11-24T00:03:36;8.20;1.00
9885;DHT22;4981;50.966;4.842;2022-11-24T00:06:05;8.70;1.00
9885;DHT22;4981;50.966;4.842;2022-11-24T00:08:33;8.60;1.00
9885;DHT22;4981;50.966;4.842;2022-11-24T00:11:07;8.50;1.00
9885;DHT22;4981;50.966;4.842;2022-11-24T00:13:35;7.40;1.00
9885;DHT22;4981;50.966;4.842;2022-11-24T00:16:06;8.40;1.00
9885;DHT22;4981;50.966;4.842;2022-11-24T00:18:34;8.60;1.00
9885;DHT22;4981;50.966;4.842;2022-11-24T00:21:01;8.50;1.00
9885;DHT22;4981;50.966;4.842;2022-11-24T00:23:31;8.70;1.00
9885;DHT22;4981;50.966;4.842;2022-11-24T00:26:08;8.70;1.00
9885;DHT22;4981;50.966;4.842;2022-11-24T00:28:36;8.70;1.00
9885;DHT22;4981;50.966;4.842;2022-11-24T00:31:13;8.50;1.00
9885;DHT22;4981;50.966;4.842;2022-11-24T00:33:41;8.60;1.00
9885;DHT22;4981;50.966;4.842;2022-11-24T00:36:08;9.60;1.00
9885;DHT22;4981;50.966;4.842;2022-11-24T00:38:35;8.50;1.00
9885;DHT22;4981;50.966;4.842;2022-11-24T00:41:07;8.70;1.00
9885;DHT22;4981;50.966;4.842;2022-11-24T00:43:34;8.60;1.00
9885;DHT22;4981;50.966;4.842;2022-11-24T00:46:01;8.90;1.00
9885;DHT22;4981;50.966;4.842;2022-11-24T00:48:29;8.60;1.00
9885;DHT22;4981;50.966;4.842;2022-11-24T00:50:57;8.60;1.00
9885;DHT22;4981;50.966;4.842;2022-11-24T00:53:25;8.60;1.00
9885;DHT22;4981;50.966;4.842;2022-11-24T00:55:53;8.20;1.00
9885;DHT22;4981;50.966;4.842;2022-11-24T00:58:23;8.60;1.00
9885;DHT22;4981;50.966;4.842;2022-11-24T01:00:54;8.50;1.00
9885;DHT22;4981;50.966;4.842;2022-11-24T01:03:26;8.50;1.00
9885;DHT22;4981;50.966;4.842;2022-11-24T01:05:54;8.50;1.00
9885;DHT22;4981;50.966;4.842;2022-11-24T01:08:21;8.40;1.00
9885;DHT22;4981;50.966;4.842;2022-11-24T01:10:48;9.00;1.00
9885;DHT22;4981;50.966;4.842;2022-11-24T01:13:15;8.60;1.00
9885;DHT22;4981;50.966;4.842;2022-11-24T01:15:44;8.60;1.00
9885;DHT22;4981;50.966;4.842;2022-11-24T01:18:11;8.00;1.00
9885;DHT22;4981;50.966;4.842;2022-11-24T01:20:38;8.50;1.00
9885;DHT22;4981;50.966;4.842;2022-11-24T01:23:05;8.60;1.00
9885;DHT22;4981;50.966;4.842;2022-11-24T01:25:32;8.50;1.00
9885;DHT22;4981;50.966;4.842;2022-11-24T01:27:59;8.50;1.00
9885;DHT22;4981;50.966;4.842;2022-11-24T01:30:26;8.60;1.00
9885;DHT22;4981;50.966;4.842;2022-11-24T01:32:55;8.70;1.00
9885;DHT22;4981;50.966;4.842;2022-11-24T01:35:22;8.60;1.00
9885;DHT22;4981;50.966;4.842;2022-11-24T01:37:51;8.60;1.00
9885;DHT22;4981;50.966;4.842;2022-11-24T01:40:19;9.20;1.00
9885;DHT22;4981;50.966;4.842;2022-11-24T01:42:47;8.60;1.00
9885;DHT22;4981;50.966;4.842;2022-11-24T01:45:33;8.60;1.00
9885;DHT22;4981;50.966;4.842;2022-11-24T01:48:05;8.60;1.00
9885;DHT22;4981;50.966;4.842;2022-11-24T01:50:34;8.50;1.00
9885;DHT22;4981;50.966;4.842;2022-11-24T01:53:02;8.50;1.00
9885;DHT22;4981;50.966;4.842;2022-11-24T01:55:33;8.50;1.00
9885;DHT22;4981;50.966;4.842;2022-11-24T01:58:04;8.40;1.00
9885;DHT22;4981;50.966;4.842;2022-11-24T02:00:33;8.60;1.00
9885;DHT22;4981;50.966;4.842;2022-11-24T02:03:03;8.80;1.00
9885;DHT22;4981;50.966;4.842;2022-11-24T02:05:36;8.80;1.00
9885;DHT22;4981;50.966;4.842;2022-11-24T02:08:09;8.70;1.00
9885;DHT22;4981;50.966;4.842;2022-11-24T02:10:38;8.60;1.00
9885;DHT22;4981;50.966;4.842;2022-11-24T02:13:06;8.70;1.00
9885;DHT22;4981;50.966;4.842;2022-11-24T02:15:34;9.00;1.00
9885;DHT22;4981;50.966;4.842;2022-11-24T02:18:03;9.50;1.00
9885;DHT22;4981;50.966;4.842;2022-11-24T02:20:31;8.90;1.00
9885;DHT22;4981;50.966;4.842;2022-11-24T02:23:02;8.80;1.00
9885;DHT22;4981;50.966;4.842;2022-11-24T02:25:38;8.90;1.00
9885;DHT22;4981;50.966;4.842;2022-11-24T02:28:13;8.90;1.00
9885;DHT22;4981;50.966;4.842;2022-11-24T02:30:42;8.80;1.00
9885;DHT22;4981;50.966;4.842;2022-11-24T02:33:10;8.80;1.00
9885;DHT22;4981;50.966;4.842;2022-11-24T02:35:38;8.90;1.00
9885;DHT22;4981;50.966;4.842;2022-11-24T02:38:10;8.90;1.00
9885;DHT22;4981;50.966;4.842;2022-11-24T02:40:40;10.00;1.00
9885;DHT22;4981;50.966;4.842;2022-11-24T02:43:13;9.60;1.00
9885;DHT22;4981;50.966;4.842;2022-11-24T02:45:41;8.50;1.00
9885;DHT22;4981;50.966;4.842;2022-11-24T02:48:09;8.90;1.00
9885;DHT22;4981;50.966;4.842;2022-11-24T02:50:37;8.50;1.00
9885;DHT22;4981;50.966;4.842;2022-11-24T02:53:04;8.80;1.00
9885;DHT22;4981;50.966;4.842;2022-11-24T02:55:31;9.00;1.00
9885;DHT22;4981;50.966;4.842;2022-11-24T02:57:59;9.30;1.00
9885;DHT22;4981;50.966;4.842;2022-11-24T03:00:30;9.00;1.00
9885;DHT22;4981;50.966;4.842;2022-11-24T03:02:57;9.40;1.00
9885;DHT22;4981;50.966;4.842;2022-11-24T03:05:24;8.70;1.00
9885;DHT22;4981;50.966;4.842;2022-11-24T03:07:52;7.60;1.00
9885;DHT22;4981;50.966;4.842;2022-11-24T03:10:19;8.90;1.00
9885;DHT22;4981;50.966;4.842;2022-11-24T03:12:46;9.00;1.00
9885;DHT22;4981;50.966;4.842;2022-11-24T03:15:14;9.10;1.00
9885;DHT22;4981;50.966;4.842;2022-11-24T03:17:42;9.00;1.00
9885;DHT22;4981;50.966;4.842;2022-11-24T03:20:10;9.10;1.00
9885;DHT22;4981;50.966;4.842;2022-11-24T03:22:37;9.10;1.00
9885;DHT22;4981;50.966;4.842;2022-11-24T03:25:07;9.10;1.00
9885;DHT22;4981;50.966;4.842;2022-11-24T03:27:34;9.70;1.00
9885;DHT22;4981;50.966;4.842;2022-11-24T03:30:01;9.10;1.00
9885;DHT22;4981;50.966;4.842;2022-11-24T03:32:29;9.00;1.00
9885;DHT22;4981;50.966;4.842;2022-11-24T03:34:58;9.00;1.00
9885;DHT22;4981;50.966;4.842;2022-11-24T03:37:25;9.10;1.00
9885;DHT22;4981;50.966;4.842;2022-11-24T03:39:57;9.00;1.00
9885;DHT22;4981;50.966;4.842;2022-11-24T03:42:24;8.80;1.00
9885;DHT22;4981;50.966;4.842;2022-11-24T03:44:51;8.90;1.00
9885;DHT22;4981;50.966;4.842;2022-11-24T03:47:18;8.90;1.00
9885;DHT22;4981;50.966;4.842;2022-11-24T03:49:48;8.90;1.00
9885;DHT22;4981;50.966;4.842;2022-11-24T03:52:17;8.80;1.00
9885;DHT22;4981;50.966;4.842;2022-11-24T03:54:44;9.00;1.00
9885;DHT22;4981;50.966;4.842;2022-11-24T03:57:12;8.20;1.00
9885;DHT22;4981;50.966;4.842;2022-11-24T03:59:39;8.80;1.00
9885;DHT22;4981;50.966;4.842;2022-11-24T04:02:07;8.90;1.00
9885;DHT22;4981;50.966;4.842;2022-11-24T04:04:34;8.80;1.00
9885;DHT22;4981;50.966;4.842;2022-11-24T04:07:01;8.50;1.00
9885;DHT22;4981;50.966;4.842;2022-11-24T04:09:29;9.10;1.00
9885;DHT22;4981;50.966;4.842;2022-11-24T04:11:56;8.50;1.00
9885;DHT22;4981;50.966;4.842;2022-11-24T04:14:41;8.40;1.00
9885;DHT22;4981;50.966;4.842;2022-11-24T04:17:08;8.70;1.00
9885;DHT22;4981;50.966;4.842;2022-11-24T04:19:35;8.20;1.00
9885;DHT22;4981;50.966;4.842;2022-11-24T04:22:02;8.20;1.00
9885;DHT22;4981;50.966;4.842;2022-11-24T04:24:31;8.30;1.00
9885;DHT22;4981;50.966;4.842;2022-11-24T04:26:58;8.30;1.00
9885;DHT22;4981;50.966;4.842;2022-11-24T04:29:26;8.40;1.00
9885;DHT22;4981;50.966;4.842;2022-11-24T04:31:53;8.60;1.00
9885;DHT22;4981;50.966;4.842;2022-11-24T04:34:21;8.20;1.00
9885;DHT22;4981;50.966;4.842;2022-11-24T04:36:48;8.30;1.00
9885;DHT22;4981;50.966;4.842;2022-11-24T04:39:16;8.10;1.00
9885;DHT22;4981;50.966;4.842;2022-11-24T04:41:48;9.00;1.00
9885;DHT22;4981;50.966;4.842;2022-11-24T04:44:15;8.40;1.00
9885;DHT22;4981;50.966;4.842;2022-11-24T04:46:43;8.80;1.00
9885;DHT22;4981;50.966;4.842;2022-11-24T04:49:10;8.00;1.00
9885;DHT22;4981;50.966;4.842;2022-11-24T04:51:37;8.30;1.00
9885;DHT22;4981;50.966;4.842;2022-11-24T04:54:05;8.10;1.00
9885;DHT22;4981;50.966;4.842;2022-11-24T04:56:32;8.30;1.00
9885;DHT22;4981;50.966;4.842;2022-11-24T04:59:01;8.30;1.00
9885;DHT22;4981;50.966;4.842;2022-11-24T05:01:29;9.10;1.00
9885;DHT22;4981;50.966;4.842;2022-11-24T05:03:56;8.40;1.00
9885;DHT22;4981;50.966;4.842;2022-11-24T05:06:24;8.10;1.00
9885;DHT22;4981;50.966;4.842;2022-11-24T05:08:52;7.90;1.00
9885;DHT22;4981;50.966;4.842;2022-11-24T05:11:19;8.00;1.00
9885;DHT22;4981;50.966;4.842;2022-11-24T05:13:46;7.90;1.00
9885;DHT22;4981;50.966;4.842;2022-11-24T05:16:15;8.00;1.00
9885;DHT22;4981;50.966;4.842;2022-11-24T05:18:42;8.10;1.00
9885;DHT22;4981;50.966;4.842;2022-11-24T05:21:10;8.10;1.00
9885;DHT22;4981;50.966;4.842;2022-11-24T05:23:37;8.00;1.00
9885;DHT22;4981;50.966;4.842;2022-11-24T05:26:05;8.10;1.00
9885;DHT22;4981;50.966;4.842;2022-11-24T05:28:32;7.90;1.00
9885;DHT22;4981;50.966;4.842;2022-11-24T05:31:00;7.40;1.00
9885;DHT22;4981;50.966;4.842;2022-11-24T05:33:29;7.00;1.00
9885;DHT22;4981;50.966;4.842;2022-11-24T05:36:00;8.60;1.00
9885;DHT22;4981;50.966;4.842;2022-11-24T05:38:28;8.00;1.00
9885;DHT22;4981;50.966;4.842;2022-11-24T05:40:59;8.00;1.00
9885;DHT22;4981;50.966;4.842;2022-11-24T05:43:26;8.10;1.00
9885;DHT22;4981;50.966;4.842;2022-11-24T05:45:57;8.00;1.00
9885;DHT22;4981;50.966;4.842;2022-11-24T05:48:24;8.10;1.00
9885;DHT22;4981;50.966;4.842;2022-11-24T05:50:56;7.90;1.00
9885;DHT22;4981;50.966;4.842;2022-11-24T05:53:24;8.10;1.00
9885;DHT22;4981;50.966;4.842;2022-11-24T05:55:51;7.90;1.00
9885;DHT22;4981;50.966;4.842;2022-11-24T05:58:18;7.90;1.00
9885;DHT22;4981;50.966;4.842;2022-11-24T06:00:46;8.00;1.00
9885;DHT22;4981;50.966;4.842;2022-11-24T06:03:15;8.20;1.00
9885;DHT22;4981;50.966;4.842;2022-11-24T06:05:45;7.90;1.00
9885;DHT22;4981;50.966;4.842;2022-11-24T06:08:15;7.90;1.00
9885;DHT22;4981;50.966;4.842;2022-11-24T06:10:42;7.60;1.00
9885;DHT22;4981;50.966;4.842;2022-11-24T06:13:09;7.80;1.00
9885;DHT22;4981;50.966;4.842;2022-11-24T06:15:36;9.20;1.00
9885;DHT22;4981;50.966;4.842;2022-11-24T06:18:05;7.80;1.00
9885;DHT22;4981;50.966;4.842;2022-11-24T06:20:33;8.00;1.00
9885;DHT22;4981;50.966;4.842;2022-11-24T06:23:00;8.60;1.00
9885;DHT22;4981;50.966;4.842;2022-11-24T06:25:29;8.40;1.00
9885;DHT22;4981;50.966;4.842;2022-11-24T06:27:56;8.00;1.00
9885;DHT22;4981;50.966;4.842;2022-11-24T06:30:24;7.70;1.00
9885;DHT22;4981;50.966;4.842;2022-11-24T06:32:54;7.70;1.00
9885;DHT22;4981;50.966;4.842;2022-11-24T06:35:21;7.70;1.00
9885;DHT22;4981;50.966;4.842;2022-11-24T06:37:48;7.70;1.00
9885;DHT22;4981;50.966;4.842;2022-11-24T06:40:16;7.60;1.00
9885;DHT22;4981;50.966;4.842;2022-11-24T06:42:49;7.70;1.00
9885;DHT22;4981;50.966;4.842;2022-11-24T06:45:19;7.80;1.00
9885;DHT22;4981;50.966;4.842;2022-11-24T06:47:48;8.20;1.00
9885;DHT22;4981;50.966;4.842;2022-11-24T06:50:15;7.60;1.00
9885;DHT22;4981;50.966;4.842;2022-11-24T06:52:42;7.90;1.00
9885;DHT22;4981;50.966;4.842;2022-11-24T06:55:09;8.40;1.00
9885;DHT22;4981;50.966;4.842;2022-11-24T06:57:36;7.40;1.00
9885;DHT22;4981;50.966;4.842;2022-11-24T07:00:06;7.40;1.00
9885;DHT22;4981;50.966;4.842;2022-11-24T07:02:33;7.50;1.00
9885;DHT22;4981;50.966;4.842;2022-11-24T07:05:01;7.40;1.00
9885;DHT22;4981;50.966;4.842;2022-11-24T07:07:28;7.50;1.00
9885;DHT22;4981;50.966;4.842;2022-11-24T07:09:55;7.60;1.00
9885;DHT22;4981;50.966;4.842;2022-11-24T07:12:23;8.20;1.00
9885;DHT22;4981;50.966;4.842;2022-11-24T07:14:50;7.70;1.00
9885;DHT22;4981;50.966;4.842;2022-11-24T07:17:19;7.70;1.00
9885;DHT22;4981;50.966;4.842;2022-11-24T07:19:46;7.40;1.00
9885;DHT22;4981;50.966;4.842;2022-11-24T07:22:13;7.50;1.00
9885;DHT22;4981;50.966;4.842;2022-11-24T07:24:41;7.50;1.00
9885;DHT22;4981;50.966;4.842;2022-11-24T07:27:08;7.40;1.00
9885;DHT22;4981;50.966;4.842;2022-11-24T07:29:36;7.30;1.00
9885;DHT22;4981;50.966;4.842;2022-11-24T07:32:03;8.40;1.00
9885;DHT22;4981;50.966;4.842;2022-11-24T07:34:31;7.30;1.00
9885;DHT22;4981;50.966;4.842;2022-11-24T07:36:59;7.40;1.00
9885;DHT22;4981;50.966;4.842;2022-11-24T07:39:26;7.60;1.00
9885;DHT22;4981;50.966;4.842;2022-11-24T07:41:54;7.30;1.00
9885;DHT22;4981;50.966;4.842;2022-11-24T07:44:21;7.30;1.00
9885;DHT22;4981;50.966;4.842;2022-11-24T07:46:49;7.40;1.00
9885;DHT22;4981;50.966;4.842;2022-11-24T07:49:17;8.30;1.00
9885;DHT22;4981;50.966;4.842;2022-11-24T07:51:46;7.30;1.00
9885;DHT22;4981;50.966;4.842;2022-11-24T07:54:13;7.80;1.00
9885;DHT22;4981;50.966;4.842;2022-11-24T07:56:43;7.50;1.00
9885;DHT22;4981;50.966;4.842;2022-11-24T07:59:10;7.50;1.00
9885;DHT22;4981;50.966;4.842;2022-11-24T08:01:37;7.60;1.00
9885;DHT22;4981;50.966;4.842;2022-11-24T08:04:04;7.70;1.00
9885;DHT22;4981;50.966;4.842;2022-11-24T08:06:31;7.50;1.00
9885;DHT22;4981;50.966;4.842;2022-11-24T08:09:00;7.50;1.00
9885;DHT22;4981;50.966;4.842;2022-11-24T08:11:28;7.60;1.00
9885;DHT22;4981;50.966;4.842;2022-11-24T08:13:57;7.90;1.00
9885;DHT22;4981;50.966;4.842;2022-11-24T08:16:24;7.90;1.00
9885;DHT22;4981;50.966;4.842;2022-11-24T08:18:53;7.70;1.00
9885;DHT22;4981;50.966;4.842;2022-11-24T08:21:21;7.70;1.00
9885;DHT22;4981;50.966;4.842;2022-11-24T08:23:52;8.10;1.00
9885;DHT22;4981;50.966;4.842;2022-11-24T08:26:21;8.10;1.00
9885;DHT22;4981;50.966;4.842;2022-11-24T08:28:53;7.70;1.00
9885;DHT22;4981;50.966;4.842;2022-11-24T08:31:20;7.90;1.00
9885;DHT22;4981;50.966;4.842;2022-11-24T08:33:47;7.90;1.00
9885;DHT22;4981;50.966;4.842;2022-11-24T08:36:16;7.80;1.00
9885;DHT22;4981;50.966;4.842;2022-11-24T08:38:45;8.20;1.00
9885;DHT22;4981;50.966;4.842;2022-11-24T08:41:15;8.00;1.00
9885;DHT22;4981;50.966;4.842;2022-11-24T08:43:44;8.10;1.00
9885;DHT22;4981;50.966;4.842;2022-11-24T08:46:13;9.30;1.00
9885;DHT22;4981;50.966;4.842;2022-11-24T08:48:41;8.10;1.00
9885;DHT22;4981;50.966;4.842;2022-11-24T08:51:10;7.90;1.00
9885;DHT22;4981;50.966;4.842;2022-11-24T08:53:38;7.90;1.00
9885;DHT22;4981;50.966;4.842;2022-11-24T08:56:07;7.90;1.00
9885;DHT22;4981;50.966;4.842;2022-11-24T08:58:34;8.00;1.00
9885;DHT22;4981;50.966;4.842;2022-11-24T09:01:08;7.90;1.00
9885;DHT22;4981;50.966;4.842;2022-11-24T09:03:37;8.10;1.00
9885;DHT22;4981;50.966;4.842;2022-11-24T09:06:05;8.60;1.00
9885;DHT22;4981;50.966;4.842;2022-11-24T09:08:34;8.80;1.00
9885;DHT22;4981;50.966;4.842;2022-11-24T09:11:06;8.30;1.00
9885;DHT22;4981;50.966;4.842;2022-11-24T09:13:34;8.40;1.00
9885;DHT22;4981;50.966;4.842;2022-11-24T09:16:02;9.20;1.00
9885;DHT22;4981;50.966;4.842;2022-11-24T09:18:33;8.40;1.00
9885;DHT22;4981;50.966;4.842;2022-11-24T09:21:07;8.50;1.00
9885;DHT22;4981;50.966;4.842;2022-11-24T09:23:34;8.60;1.00
9885;DHT22;4981;50.966;4.842;2022-11-24T09:26:03;8.40;1.00
9885;DHT22;4981;50.966;4.842;2022-11-24T09:28:30;8.50;1.00
9885;DHT22;4981;50.966;4.842;2022-11-24T09:31:00;8.60;1.00
9885;DHT22;4981;50.966;4.842;2022-11-24T09:33:27;9.10;1.00
9885;DHT22;4981;50.966;4.842;2022-11-24T09:35:57;8.60;1.00
9885;DHT22;4981;50.966;4.842;2022-11-24T09:38:28;8.60;1.00
9885;DHT22;4981;50.966;4.842;2022-11-24T09:40:56;9.90;1.00
9885;DHT22;4981;50.966;4.842;2022-11-24T09:43:37;8.70;1.00
9885;DHT22;4981;50.966;4.842;2022-11-24T09:46:11;8.80;1.00
9885;DHT22;4981;50.966;4.842;2022-11-24T09:48:42;9.80;1.00
9885;DHT22;4981;50.966;4.842;2022-11-24T09:51:14;8.90;1.00
9885;DHT22;4981;50.966;4.842;2022-11-24T09:53:44;9.00;1.00
9885;DHT22;4981;50.966;4.842;2022-11-24T09:56:17;9.00;1.00
9885;DHT22;4981;50.966;4.842;2022-11-24T09:58:47;9.50;1.00
9885;DHT22;4981;50.966;4.842;2022-11-24T10:01:17;9.00;1.00
9885;DHT22;4981;50.966;4.842;2022-11-24T10:03:46;9.80;1.00
9885;DHT22;4981;50.966;4.842;2022-11-24T10:06:21;9.10;1.00
9885;DHT22;4981;50.966;4.842;2022-11-24T10:12:01;9.30;1.00
9885;DHT22;4981;50.966;4.842;2022-11-24T10:14:53;9.60;1.00
9885;DHT22;4981;50.966;4.842;2022-11-24T10:17:32;9.30;1.00
9885;DHT22;4981;50.966;4.842;2022-11-24T10:20:07;9.40;1.00
9885;DHT22;4981;50.966;4.842;2022-11-24T10:22:43;9.40;1.00
9885;DHT22;4981;50.966;4.842;2022-11-24T10:25:19;9.90;1.00
9885;DHT22;4981;50.966;4.842;2022-11-24T10:27:51;9.50;1.00
9885;DHT22;4981;50.966;4.842;2022-11-24T10:30:21;9.70;1.00
9885;DHT22;4981;50.966;4.842;2022-11-24T10:32:55;9.90;1.00
9885;DHT22;4981;50.966;4.842;2022-11-24T10:35:28;10.20;1.00
9885;DHT22;4981;50.966;4.842;2022-11-24T10:38:13;9.70;1.00
9885;DHT22;4981;50.966;4.842;2022-11-24T10:40:44;9.80;1.00
9885;DHT22;4981;50.966;4.842;2022-11-24T10:43:13;9.70;1.00
9885;DHT22;4981;50.966;4.842;2022-11-24T10:45:41;9.70;1.00
9885;DHT22;4981;50.966;4.842;2022-11-24T10:48:20;10.10;1.00
9885;DHT22;4981;50.966;4.842;2022-11-24T10:50:48;9.90;1.00
9885;DHT22;4981;50.966;4.842;2022-11-24T10:53:23;10.00;1.00
9885;DHT22;4981;50.966;4.842;2022-11-24T10:56:00;10.20;1.00
9885;DHT22;4981;50.966;4.842;2022-11-24T10:58:29;10.10;1.00
9885;DHT22;4981;50.966;4.842;2022-11-24T11:00:58;10.10;1.00
9885;DHT22;4981;50.966;4.842;2022-11-24T11:03:29;8.80;1.00
9885;DHT22;4981;50.966;4.842;2022-11-24T11:06:00;9.60;1.00
9885;DHT22;4981;50.966;4.842;2022-11-24T11:08:31;10.70;1.00
9885;DHT22;4981;50.966;4.842;2022-11-24T11:11:13;10.50;1.00
9885;DHT22;4981;50.966;4.842;2022-11-24T11:13:52;10.50;1.00
9885;DHT22;4981;50.966;4.842;2022-11-24T11:16:25;10.80;1.00
9885;DHT22;4981;50.966;4.842;2022-11-24T11:18:53;10.70;1.00
9885;DHT22;4981;50.966;4.842;2022-11-24T11:21:31;10.90;1.00
9885;DHT22;4981;50.966;4.842;2022-11-24T11:24:03;10.90;1.00
9885;DHT22;4981;50.966;4.842;2022-11-24T11:26:35;10.90;1.00
9885;DHT22;4981;50.966;4.842;2022-11-24T11:29:13;11.20;1.00
9885;DHT22;4981;50.966;4.842;2022-11-24T11:31:41;11.30;1.00
9885;DHT22;4981;50.966;4.842;2022-11-24T11:34:18;11.30;1.00
9885;DHT22;4981;50.966;4.842;2022-11-24T11:36:47;11.30;1.00
9885;DHT22;4981;50.966;4.842;2022-11-24T11:39:33;11.40;1.00
9885;DHT22;4981;50.966;4.842;2022-11-24T11:42:15;11.60;1.00
9885;DHT22;4981;50.966;4.842;2022-11-24T11:44:47;11.80;1.00
9885;DHT22;4981;50.966;4.842;2022-11-24T11:47:20;11.90;1.00
9885;DHT22;4981;50.966;4.842;2022-11-24T11:49:50;11.70;1.00
9885;DHT22;4981;50.966;4.842;2022-11-24T11:55:57;12.00;1.00
9885;DHT22;4981;50.966;4.842;2022-11-24T11:58:46;12.10;1.00
9885;DHT22;4981;50.966;4.842;2022-11-24T12:01:34;13.00;1.00
9885;DHT22;4981;50.966;4.842;2022-11-24T12:04:15;12.20;1.00
9885;DHT22;4981;50.966;4.842;2022-11-24T12:07:04;12.30;1.00
9885;DHT22;4981;50.966;4.842;2022-11-24T12:09:49;12.20;1.00
9885;DHT22;4981;50.966;4.842;2022-11-24T12:12:41;12.30;1.00
9885;DHT22;4981;50.966;4.842;2022-11-24T12:15:18;12.30;1.00
9885;DHT22;4981;50.966;4.842;2022-11-24T12:17:51;12.50;1.00
9885;DHT22;4981;50.966;4.842;2022-11-24T12:20:40;12.70;1.00
9885;DHT22;4981;50.966;4.842;2022-11-24T12:23:17;12.70;1.00
9885;DHT22;4981;50.966;4.842;2022-11-24T12:25:49;13.00;1.00
9885;DHT22;4981;50.966;4.842;2022-11-24T12:28:32;13.20;1.00
9885;DHT22;4981;50.966;4.842;2022-11-24T12:31:04;13.20;1.00
9885;DHT22;4981;50.966;4.842;2022-11-24T12:33:51;13.00;1.00
9885;DHT22;4981;50.966;4.842;2022-11-24T12:36:31;12.70;1.00
9885;DHT22;4981;50.966;4.842;2022-11-24T12:39:04;12.80;1.00
9885;DHT22;4981;50.966;4.842;2022-11-24T12:41:48;13.10;1.00
9885;DHT22;4981;50.966;4.842;2022-11-24T12:44:38;13.10;1.00
9885;DHT22;4981;50.966;4.842;2022-11-24T12:47:14;12.90;1.00
9885;DHT22;4981;50.966;4.842;2022-11-24T12:49:55;12.80;1.00
9885;DHT22;4981;50.966;4.842;2022-11-24T12:52:27;12.60;1.00
9885;DHT22;4981;50.966;4.842;2022-11-24T12:54:57;12.40;1.00
9885;DHT22;4981;50.966;4.842;2022-11-24T12:57:30;11.90;1.00
9885;DHT22;4981;50.966;4.842;2022-11-24T13:00:02;12.50;1.00
9885;DHT22;4981;50.966;4.842;2022-11-24T13:02:42;12.60;1.00
9885;DHT22;4981;50.966;4.842;2022-11-24T13:05:20;13.00;1.00
9885;DHT22;4981;50.966;4.842;2022-11-24T13:07:54;13.00;1.00
9885;DHT22;4981;50.966;4.842;2022-11-24T13:10:31;13.40;1.00
9885;DHT22;4981;50.966;4.842;2022-11-24T13:13:00;13.00;1.00
9885;DHT22;4981;50.966;4.842;2022-11-24T13:15:30;12.80;1.00
9885;DHT22;4981;50.966;4.842;2022-11-24T13:17:58;13.20;1.00
9885;DHT22;4981;50.966;4.842;2022-11-24T13:20:30;13.60;1.00
9885;DHT22;4981;50.966;4.842;2022-11-24T13:22:59;13.10;1.00
9885;DHT22;4981;50.966;4.842;2022-11-24T13:25:29;13.90;1.00
9885;DHT22;4981;50.966;4.842;2022-11-24T13:27:58;13.30;1.00
9885;DHT22;4981;50.966;4.842;2022-11-24T13:31:05;12.60;1.00
9885;DHT22;4981;50.966;4.842;2022-11-24T13:33:36;13.70;1.00
9885;DHT22;4981;50.966;4.842;2022-11-24T13:36:32;13.60;1.00
9885;DHT22;4981;50.966;4.842;2022-11-24T13:39:00;14.20;1.00
9885;DHT22;4981;50.966;4.842;2022-11-24T13:44:52;13.30;1.00
9885;DHT22;4981;50.966;4.842;2022-11-24T13:47:45;13.30;1.00
9885;DHT22;4981;50.966;4.842;2022-11-24T13:50:21;12.60;1.00
9885;DHT22;4981;50.966;4.842;2022-11-24T13:52:56;12.50;1.00
9885;DHT22;4981;50.966;4.842;2022-11-24T13:55:30;12.30;1.00
9885;DHT22;4981;50.966;4.842;2022-11-24T13:58:03;12.20;1.00
9885;DHT22;4981;50.966;4.842;2022-11-24T14:00:33;12.00;1.00
9885;DHT22;4981;50.966;4.842;2022-11-24T14:03:05;11.40;1.00
9885;DHT22;4981;50.966;4.842;2022-11-24T14:05:39;12.10;1.00
9885;DHT22;4981;50.966;4.842;2022-11-24T14:08:18;11.80;1.00
9885;DHT22;4981;50.966;4.842;2022-11-24T14:10:45;11.70;1.00
9885;DHT22;4981;50.966;4.842;2022-11-24T14:13:24;11.70;1.00
9885;DHT22;4981;50.966;4.842;2022-11-24T14:16:02;11.70;1.00
9885;DHT22;4981;50.966;4.842;2022-11-24T14:18:32;11.60;1.00
9885;DHT22;4981;50.966;4.842;2022-11-24T14:21:14;11.40;1.00
9885;DHT22;4981;50.966;4.842;2022-11-24T14:23:43;12.50;1.00
9885;DHT22;4981;50.966;4.842;2022-11-24T14:26:17;11.40;1.00
9885;DHT22;4981;50.966;4.842;2022-11-24T14:28:46;11.40;1.00
9885;DHT22;4981;50.966;4.842;2022-11-24T14:31:21;11.30;1.00
9885;DHT22;4981;50.966;4.842;2022-11-24T14:34:08;11.30;1.00
9885;DHT22;4981;50.966;4.842;2022-11-24T14:36:38;11.20;1.00
9885;DHT22;4981;50.966;4.842;2022-11-24T14:39:10;11.20;1.00
9885;DHT22;4981;50.966;4.842;2022-11-24T14:41:39;11.10;1.00
9885;DHT22;4981;50.966;4.842;2022-11-24T14:44:15;11.10;1.00
9885;DHT22;4981;50.966;4.842;2022-11-24T14:46:42;11.00;1.00
9885;DHT22;4981;50.966;4.842;2022-11-24T14:49:16;10.90;1.00
9885;DHT22;4981;50.966;4.842;2022-11-24T14:51:44;11.00;1.00
9885;DHT22;4981;50.966;4.842;2022-11-24T14:54:15;10.90;1.00
9885;DHT22;4981;50.966;4.842;2022-11-24T14:56:56;10.80;1.00
9885;DHT22;4981;50.966;4.842;2022-11-24T14:59:24;10.90;1.00
9885;DHT22;4981;50.966;4.842;2022-11-24T15:01:53;10.70;1.00
9885;DHT22;4981;50.966;4.842;2022-11-24T15:04:22;10.90;1.00
9885;DHT22;4981;50.966;4.842;2022-11-24T15:07:02;10.50;1.00
9885;DHT22;4981;50.966;4.842;2022-11-24T15:09:31;10.50;1.00
9885;DHT22;4981;50.966;4.842;2022-11-24T15:12:04;10.60;1.00
9885;DHT22;4981;50.966;4.842;2022-11-24T15:14:48;10.50;1.00
9885;DHT22;4981;50.966;4.842;2022-11-24T15:17:17;10.40;1.00
9885;DHT22;4981;50.966;4.842;2022-11-24T15:19:49;11.00;1.00
9885;DHT22;4981;50.966;4.842;2022-11-24T15:22:33;10.40;1.00
9885;DHT22;4981;50.966;4.842;2022-11-24T15:25:01;10.40;1.00
9885;DHT22;4981;50.966;4.842;2022-11-24T15:27:29;10.30;1.00
9885;DHT22;4981;50.966;4.842;2022-11-24T15:29:56;10.40;1.00
9885;DHT22;4981;50.966;4.842;2022-11-24T15:32:23;10.10;1.00
9885;DHT22;4981;50.966;4.842;2022-11-24T15:34:52;10.20;1.00
9885;DHT22;4981;50.966;4.842;2022-11-24T15:37:19;10.10;1.00
9885;DHT22;4981;50.966;4.842;2022-11-24T15:39:46;10.80;1.00
9885;DHT22;4981;50.966;4.842;2022-11-24T15:42:13;9.90;1.00
9885;DHT22;4981;50.966;4.842;2022-11-24T15:44:40;11.30;1.00
9885;DHT22;4981;50.966;4.842;2022-11-24T15:47:07;10.00;1.00
9885;DHT22;4981;50.966;4.842;2022-11-24T15:49:36;9.90;1.00
9885;DHT22;4981;50.966;4.842;2022-11-24T15:52:05;9.90;1.00
9885;DHT22;4981;50.966;4.842;2022-11-24T15:54:33;10.00;1.00
9885;DHT22;4981;50.966;4.842;2022-11-24T15:57:03;10.00;1.00
9885;DHT22;4981;50.966;4.842;2022-11-24T15:59:31;9.80;1.00
9885;DHT22;4981;50.966;4.842;2022-11-24T16:01:59;9.80;1.00
9885;DHT22;4981;50.966;4.842;2022-11-24T16:04:26;9.80;1.00
9885;DHT22;4981;50.966;4.842;2022-11-24T16:06:53;9.80;1.00
9885;DHT22;4981;50.966;4.842;2022-11-24T16:09:22;10.00;1.00
9885;DHT22;4981;50.966;4.842;2022-11-24T16:11:49;9.80;1.00
9885;DHT22;4981;50.966;4.842;2022-11-24T16:14:16;9.70;1.00
9885;DHT22;4981;50.966;4.842;2022-11-24T16:16:44;9.70;1.00
9885;DHT22;4981;50.966;4.842;2022-11-24T16:19:11;9.60;1.00
9885;DHT22;4981;50.966;4.842;2022-11-24T16:21:40;9.80;1.00
9885;DHT22;4981;50.966;4.842;2022-11-24T16:24:07;9.50;1.00
9885;DHT22;4981;50.966;4.842;2022-11-24T16:26:36;9.60;1.00
9885;DHT22;4981;50.966;4.842;2022-11-24T16:29:04;9.50;1.00
9885;DHT22;4981;50.966;4.842;2022-11-24T16:31:31;9.40;1.00
9885;DHT22;4981;50.966;4.842;2022-11-24T16:33:58;9.40;1.00
9885;DHT22;4981;50.966;4.842;2022-11-24T16:36:25;9.50;1.00
9885;DHT22;4981;50.966;4.842;2022-11-24T16:38:53;9.20;1.00
9885;DHT22;4981;50.966;4.842;2022-11-24T16:41:20;9.50;1.00
9885;DHT22;4981;50.966;4.842;2022-11-24T16:43:49;9.70;1.00
9885;DHT22;4981;50.966;4.842;2022-11-24T16:46:18;10.60;1.00
9885;DHT22;4981;50.966;4.842;2022-11-24T16:48:48;9.90;1.00
9885;DHT22;4981;50.966;4.842;2022-11-24T16:51:16;9.50;1.00
9885;DHT22;4981;50.966;4.842;2022-11-24T16:53:44;9.90;1.00
9885;DHT22;4981;50.966;4.842;2022-11-24T16:56:11;9.30;1.00
9885;DHT22;4981;50.966;4.842;2022-11-24T16:58:40;9.30;1.00
9885;DHT22;4981;50.966;4.842;2022-11-24T17:01:11;9.50;1.00